createdAt,value
2023-10-23T00:00:00.194Z,71.49
2023-10-23T00:05:00.258Z,71.38
2023-10-23T00:10:00.084Z,71.49
2023-10-23T00:15:00.109Z,71.52
2023-10-23T00:20:00.172Z,71.61
2023-10-23T00:25:00.085Z,71.66
2023-10-23T00:30:00.091Z,71.57
2023-10-23T00:35:01.088Z,71.53
2023-10-23T00:40:00.137Z,71.74
2023-10-23T00:45:00.118Z,71.76
2023-10-23T00:50:00.137Z,71.89
2023-10-23T00:55:00.127Z,71.76
2023-10-23T01:00:00.187Z,71.61
2023-10-23T01:05:00.118Z,71.33
2023-10-23T01:10:00.110Z,71.09
2023-10-23T01:15:00.108Z,71.69
2023-10-23T01:20:00.167Z,71.74
2023-10-23T01:25:00.155Z,71.72
2023-10-23T01:30:00.128Z,71.62
2023-10-23T01:35:00.126Z,71.5
2023-10-23T01:40:00.212Z,71.35
2023-10-23T01:45:00.153Z,71.96
2023-10-23T01:50:00.144Z,72.03
2023-10-23T01:55:00.150Z,72.04
2023-10-23T02:00:00.242Z,71.91
2023-10-23T02:05:00.098Z,71.74
2023-10-23T02:10:15.583Z,71.66
2023-10-23T02:15:00.110Z,72.19
2023-10-23T02:20:00.210Z,72.28
2023-10-23T02:25:00.156Z,72.16
2023-10-23T02:30:00.105Z,72.08
2023-10-23T02:35:00.116Z,71.79
2023-10-23T02:40:00.580Z,71.6
2023-10-23T02:45:00.135Z,72.28
2023-10-23T02:50:00.110Z,72.22
2023-10-23T02:55:00.146Z,72.21
2023-10-23T03:00:00.234Z,71.9
2023-10-23T03:05:00.128Z,71.65
2023-10-23T03:10:00.161Z,71.67
2023-10-23T03:15:00.110Z,72.35
2023-10-23T03:20:00.169Z,72.38
2023-10-23T03:25:00.183Z,72.3
2023-10-23T03:30:00.175Z,72.06
2023-10-23T03:35:00.121Z,71.83
2023-10-23T03:40:00.220Z,71.85
2023-10-23T03:45:00.108Z,72.42
2023-10-23T03:50:00.117Z,72.46
2023-10-23T03:55:00.159Z,72.38
2023-10-23T04:00:00.166Z,72.11
2023-10-23T04:05:00.113Z,72.19
2023-10-23T04:10:00.170Z,71.88
2023-10-23T04:15:00.113Z,71.84
2023-10-23T04:20:00.131Z,72.59
2023-10-23T04:25:00.186Z,72.3
2023-10-23T04:30:00.112Z,71.92
2023-10-23T04:35:00.137Z,71.99
2023-10-23T04:40:00.197Z,71.96
2023-10-23T04:45:00.121Z,71.84
2023-10-23T04:50:00.145Z,73.05
2023-10-23T04:55:00.215Z,73.04
2023-10-23T05:00:00.186Z,72.25
2023-10-23T05:05:00.184Z,72.2
2023-10-23T05:10:00.212Z,72.13
2023-10-23T05:15:00.123Z,72.33
2023-10-23T05:20:00.149Z,72.47
2023-10-23T05:25:00.157Z,72.26
2023-10-23T05:30:00.131Z,72
2023-10-23T05:35:00.113Z,71.9
2023-10-23T05:40:00.186Z,71.9
2023-10-23T05:45:00.124Z,71.95
2023-10-23T05:50:00.148Z,72.29
2023-10-23T05:55:01.884Z,72.35
2023-10-23T06:00:00.171Z,72
2023-10-23T06:05:00.110Z,72.09
2023-10-23T06:10:00.230Z,72.12
2023-10-23T06:15:00.218Z,72.32
2023-10-23T06:20:00.239Z,72.63
2023-10-23T06:25:00.130Z,72.57
2023-10-23T06:30:00.115Z,72.34
2023-10-23T06:35:00.094Z,72.15
2023-10-23T06:40:00.176Z,72.04
2023-10-23T06:45:00.192Z,72.27
2023-10-23T06:50:00.107Z,72.19
2023-10-23T06:55:00.088Z,72.19
2023-10-23T07:00:00.169Z,72.07
2023-10-23T07:05:00.113Z,71.98
2023-10-23T07:10:00.779Z,72.02
2023-10-23T07:15:01.137Z,72.03
2023-10-23T07:20:00.164Z,72.06
2023-10-23T07:25:00.099Z,72.03
2023-10-23T07:30:00.129Z,72.07
2023-10-23T07:35:00.126Z,72
2023-10-23T07:40:00.226Z,72.06
2023-10-23T07:45:00.099Z,72.76
2023-10-23T07:50:00.099Z,72.64
2023-10-23T07:55:01.146Z,72.36
2023-10-23T08:00:00.146Z,71.83
2023-10-23T08:05:00.204Z,72.91
2023-10-23T08:10:00.154Z,72.52
2023-10-23T08:15:00.088Z,72.3
2023-10-23T08:20:00.250Z,71.74
2023-10-23T08:25:00.122Z,71.48
2023-10-23T08:30:00.131Z,70.86
2023-10-23T08:35:00.087Z,69.92
2023-10-23T08:40:00.192Z,70.42
2023-10-23T08:45:00.102Z,69.12
2023-10-23T08:50:00.092Z,70.26
2023-10-23T08:55:00.155Z,70.34
2023-10-23T09:00:00.116Z,70.11
2023-10-23T09:05:00.233Z,70.05
2023-10-23T09:10:00.147Z,70.38
2023-10-23T09:15:00.086Z,69.7
2023-10-23T09:20:00.209Z,69.65
2023-10-23T09:25:00.148Z,69.52
2023-10-23T09:30:00.117Z,69.57
2023-10-23T09:35:00.149Z,70.27
2023-10-23T09:40:00.376Z,68.72
2023-10-23T09:45:00.252Z,69.46
2023-10-23T09:50:00.189Z,68.65
2023-10-23T09:55:00.102Z,69.75
2023-10-23T10:00:00.178Z,68.88
2023-10-23T10:05:00.141Z,68.36
2023-10-23T10:10:00.137Z,68.12
2023-10-23T10:15:00.088Z,68.1
2023-10-23T10:20:00.139Z,68.51
2023-10-23T10:25:00.113Z,69.42
2023-10-23T10:30:00.094Z,67.76
2023-10-23T10:35:00.257Z,67.31
2023-10-23T10:40:00.131Z,65.98
2023-10-23T10:45:00.091Z,65.61
2023-10-23T10:50:00.127Z,64.74
2023-10-23T10:55:00.125Z,64.89
2023-10-23T11:00:00.140Z,64.42
2023-10-23T11:05:00.095Z,63.49
2023-10-23T11:10:00.152Z,61.4
2023-10-23T11:15:00.076Z,62.88
2023-10-23T11:20:00.116Z,61.07
2023-10-23T11:25:00.116Z,61.65
2023-10-23T11:30:00.096Z,59.72
2023-10-23T11:35:00.107Z,60.12
2023-10-23T11:40:00.192Z,59.73
2023-10-23T11:45:00.092Z,61.62
2023-10-23T11:50:00.097Z,58.99
2023-10-23T11:55:00.145Z,60.58
2023-10-23T12:00:00.247Z,56.06
2023-10-23T12:05:00.156Z,57.11
2023-10-23T12:10:00.179Z,57.26
2023-10-23T12:15:00.085Z,56.31
2023-10-23T12:20:00.152Z,53.7
2023-10-23T12:25:00.127Z,51.48
2023-10-23T12:30:00.148Z,53.51
2023-10-23T12:35:00.206Z,51.97
2023-10-23T12:40:00.281Z,53.07
2023-10-23T12:45:00.108Z,52.46
2023-10-23T12:50:00.099Z,53.95
2023-10-23T12:55:00.208Z,52.25
2023-10-23T13:00:00.145Z,53.15
2023-10-23T13:05:00.158Z,48.7
2023-10-23T13:10:00.103Z,49.07
2023-10-23T13:15:00.107Z,49.19
2023-10-23T13:20:52.004Z,49.65
2023-10-23T13:25:00.153Z,48.97
2023-10-23T13:30:00.094Z,50.46
2023-10-23T13:35:00.084Z,48.31
2023-10-23T13:40:00.287Z,47.33
2023-10-23T13:45:00.096Z,48.48
2023-10-23T13:50:00.110Z,49.68
2023-10-23T13:55:00.108Z,50.32
2023-10-23T14:00:00.134Z,51.27
2023-10-23T14:05:00.173Z,50.82
2023-10-23T14:10:00.103Z,50.84
2023-10-23T14:15:00.114Z,51.39
2023-10-23T14:20:00.179Z,51.95
2023-10-23T14:25:00.113Z,52.58
2023-10-23T14:30:00.110Z,53
2023-10-23T14:35:00.094Z,53.3
2023-10-23T14:40:00.149Z,53.22
2023-10-23T14:45:00.098Z,53.67
2023-10-23T14:50:00.106Z,54.11
2023-10-23T14:55:00.111Z,53.93
2023-10-23T15:00:00.206Z,54.07
2023-10-23T15:05:00.108Z,54.78
2023-10-23T15:10:00.151Z,54.86
2023-10-23T15:15:00.098Z,54.69
2023-10-23T15:20:00.203Z,55.15
2023-10-23T15:25:00.098Z,55.37
2023-10-23T15:30:00.110Z,55.69
2023-10-23T15:35:00.127Z,56.18
2023-10-23T15:40:00.259Z,56.15
2023-10-23T15:45:00.103Z,56.33
2023-10-23T15:50:00.125Z,56.61
2023-10-23T15:55:00.139Z,56.84
2023-10-23T16:00:00.174Z,57.08
2023-10-23T16:05:00.128Z,57.03
2023-10-23T16:10:00.160Z,56.51
2023-10-23T16:15:00.318Z,57.22
2023-10-23T16:20:00.153Z,57.78
2023-10-23T16:25:00.157Z,57.93
2023-10-23T16:30:00.115Z,58.3
2023-10-23T16:35:00.121Z,58.76
2023-10-23T16:40:00.225Z,59.89
2023-10-23T16:45:00.253Z,60.53
2023-10-23T16:50:00.123Z,60.96
2023-10-23T16:55:00.199Z,61.68
2023-10-23T17:00:00.194Z,62.35
2023-10-23T17:05:00.139Z,62.63
2023-10-23T17:10:00.165Z,62.82
2023-10-23T17:15:00.114Z,62.85
2023-10-23T17:20:00.209Z,63.31
2023-10-23T17:25:00.168Z,63.36
2023-10-23T17:30:00.118Z,63.56
2023-10-23T17:35:00.119Z,63.83
2023-10-23T17:40:00.179Z,64.12
2023-10-23T17:45:00.099Z,64.21
2023-10-23T17:50:00.135Z,64.08
2023-10-23T17:55:00.211Z,64.21
2023-10-23T18:00:00.166Z,64.28
2023-10-23T18:05:00.086Z,64.41
2023-10-23T18:10:00.173Z,64.53
2023-10-23T18:15:00.138Z,64.5
2023-10-23T18:20:00.182Z,64.52
2023-10-23T18:25:00.226Z,64.86
2023-10-23T18:30:00.109Z,64.95
2023-10-23T18:35:01.138Z,64.93
2023-10-23T18:40:00.279Z,64.94
2023-10-23T18:45:00.232Z,65.16
2023-10-23T18:50:00.101Z,65.23
2023-10-23T18:55:00.143Z,65.26
2023-10-23T19:00:00.181Z,65.27
2023-10-23T19:05:00.093Z,65.47
2023-10-23T19:10:00.240Z,65.69
2023-10-23T19:15:00.090Z,65.63
2023-10-23T19:20:00.160Z,65.4
2023-10-23T19:25:00.139Z,65.47
2023-10-23T19:30:00.107Z,65.61
2023-10-23T19:35:00.095Z,66.03
2023-10-23T19:40:00.169Z,65.98
2023-10-23T19:45:00.107Z,66.53
2023-10-23T19:50:00.102Z,66.2
2023-10-23T19:55:04.709Z,66.49
2023-10-23T20:00:00.162Z,66.07
2023-10-23T20:05:00.216Z,66.4
2023-10-23T20:10:00.146Z,66.57
2023-10-23T20:15:00.125Z,66.68
2023-10-23T20:20:00.188Z,66.47
2023-10-23T20:25:00.243Z,66.67
2023-10-23T20:30:00.156Z,67.01
2023-10-23T20:35:00.133Z,67.13
2023-10-23T20:40:00.280Z,67.15
2023-10-23T20:45:00.130Z,67.38
2023-10-23T20:50:00.106Z,67.87
2023-10-23T20:55:00.250Z,67.9
2023-10-23T21:00:00.155Z,67.89
2023-10-23T21:05:00.086Z,68.08
2023-10-23T21:10:00.131Z,68.24
2023-10-23T21:15:00.080Z,68.23
2023-10-23T21:20:00.152Z,68.52
2023-10-23T21:25:00.105Z,69.45
2023-10-23T21:30:00.110Z,68.97
2023-10-23T21:35:00.154Z,68.91
2023-10-23T21:40:00.180Z,68.82
2023-10-23T21:45:00.100Z,69.24
2023-10-23T21:50:00.213Z,69.12
2023-10-23T21:55:02.715Z,69.23
2023-10-23T22:00:00.240Z,69.22
2023-10-23T22:05:00.096Z,69.43
2023-10-23T22:10:00.119Z,69.55
2023-10-23T22:15:00.113Z,69.57
2023-10-23T22:20:00.188Z,69.47
2023-10-23T22:25:00.082Z,69.52
2023-10-23T22:30:00.091Z,69.81
2023-10-23T22:35:00.108Z,69.53
2023-10-23T22:40:00.213Z,69.32
2023-10-23T22:45:00.140Z,69.27
2023-10-23T22:50:00.150Z,69.25
2023-10-23T22:55:00.219Z,69.03
2023-10-23T23:00:00.254Z,69.49
2023-10-23T23:05:00.193Z,69.68
2023-10-23T23:10:00.109Z,69.85
2023-10-23T23:15:00.124Z,69.67
2023-10-23T23:20:00.160Z,69.75
2023-10-23T23:25:00.126Z,69.59
2023-10-23T23:30:00.137Z,69.66
2023-10-23T23:35:00.123Z,69.87
2023-10-23T23:40:00.192Z,69.88
2023-10-23T23:45:00.111Z,69.9
2023-10-23T23:50:00.138Z,70.04
2023-10-23T23:55:00.120Z,70.01
